Aviation Digital Data Service (ADDS)

Output produced by METARs form (1638 UTC 16 June 2019)
found at http://www.aviationweather.gov/metar/data/
 
ZBHH 161600Z 06003MPS CAVOK 15/11 Q1011 NOSIG
TAF ZBHH 161500Z 1618/1718 23004MPS CAVOK TX28/1707Z TN12/1621Z 
     TEMPO 1622/1624 FEW040 FEW040CB
       
ZGGG 161630Z VRB01MPS CAVOK 28/20 Q1007 NOSIG
TAF ZGGG 161505Z 1618/1718 13003MPS 8000 BKN040 TX34/1707Z TN26/1622Z
       
ZGSZ 161600Z 12006MPS CAVOK 27/23 Q1007 NOSIG
TAF ZGSZ 161501Z 1618/1718 11006MPS 8000 FEW030 TX32/1706Z TN27/1622Z
       
ZBTJ 161630Z 15001MPS CAVOK 17/14 Q1011 NOSIG
TAF ZBTJ 161518Z 1618/1718 14003MPS 5000 BR NSC TX28/1707Z TN16/1621Z
       
ZBAA 161630Z 13002MPS 9999 OVC040 19/16 Q1011 NOSIG
TAF ZBAA 161520Z 1618/1718 16004MPS 6000 BKN040 TX31/1707Z TN18/1621Z
       
ZSFZ 161600Z 02003MPS 350V050 9999 BKN019 25/20 Q1010 NOSIG
TAF ZSFZ 161505Z 1618/1718 03004MPS 6000 BKN015 TX29/1706Z TN21/1621Z
       
ZYCC 161600Z 00000MPS CAVOK 09/07 Q1011 NOSIG
TAF ZYCC 161304Z 1618/1718 18003MPS 6000 FEW026 TX23/1706Z TN10/1620Z 
     TEMPO 1618/1622 2000 BR
       
ZWWW 161630Z 31008G13MPS 7000 -SHRA BKN014 FEW040CB BKN040 16/13 Q1016 BECMG TL1730 -TSRA
TAF ZWWW 161501Z 1618/1718 30004G09MPS 9999 -RA FEW030CB BKN040 TX29/1709Z
TN18/1623Z 
     BECMG 1620/1621 20004MPS CAVOK 
     BECMG 1703/1704 36004MPS 
     BECMG 1713/1714 18004MPS
       
ZSAM 161600Z 08004MPS 9999 SCT050 26/22 Q1010 NOSIG
TAF ZSAM 161510Z 1618/1718 11004G09MPS 6000 SCT033 TX31/1706Z TN23/1621Z
       
ZSSS 161630Z 15004MPS CAVOK 27/19 Q1009 NOSIG
TAF ZSSS 161511Z 1618/1718 14004MPS 6000 NSC TX30/1706Z TN24/1621Z
       
ZGHA 161600Z 07002MPS 5000 BR BKN050 24/23 Q1006 NOSIG
TAF ZGHA 161434Z 1618/1718 05003MPS 4000 -RA BR BKN020 OVC050 TX26/1707Z
TN20/1622Z 
     TEMPO 1622/1702 2500 SHRA BR BKN011 FEW040CB BKN040
       
ZUCK 161600Z VRB01MPS 7000 -RA FEW006 BKN026 OVC046 20/20 Q1008 NOSIG
TAF ZUCK 161504Z 1618/1718 01003MPS 3100 -RA BR FEW002 SCT007 OVC033 TX22/1708Z
TN19/1622Z 
     BECMG 1703/1704 5000 BR SCT020 OVC050 
     BECMG 1714/1715 3500 -RA BR
       
ZWSH 161600Z 33008MPS CAVOK 27/M10 Q1010 NOSIG
TAF ZWSH 161504Z 1618/1718 33008G13MPS 9999 FEW040 TX31/1709Z TN20/1700Z 
     BECMG 1704/1705 12004MPS
       
ZGKL 161600Z VRB01MPS 2500 BR FEW020 SCT036 OVC066 25/24 Q1006 NOSIG
TAF ZGKL 161517Z 1618/1718 05003MPS 3000 BR FEW015 BKN026 OVC040 TX28/1707Z
TN23/1623Z 
     TEMPO 1620/1702 2200 SHRA FEW013 BKN026 FEW036CB BKN036
       
ZSNB 161600Z 17002MPS 140V200 CAVOK 25/18 Q1010 NOSIG
TAF ZSNB 161424Z 1618/1718 16004MPS 3500 BR SCT030 TX27/1706Z TN21/1621Z
       
ZSQD 161600Z 17003MPS CAVOK 20/15 Q1010 NOSIG
TAF ZSQD 161506Z 1618/1718 18004MPS CAVOK TX28/1706Z TN18/1621Z
       
ZSNJ 161600Z 14002MPS 060V160 CAVOK 27/19 Q1008 NOSIG
TAF ZSNJ 161501Z 1618/1718 15004MPS 3000 HZ SCT030 TX29/1706Z TN23/1621Z
       
ZSOF 161600Z 20003MPS CAVOK 27/20 Q1007 NOSIG
TAF ZSOF 161502Z 1618/1718 15003MPS 6000 NSC TX30/1707Z TN24/1621Z 
     TEMPO 1712/1718 2700 SHRA BR FEW030CB
       
ZJHK 161600Z 12002MPS CAVOK 26/25 Q1005 NOSIG
TAF ZJHK 161508Z 1618/1718 15004MPS 9999 SCT020 TX34/1706Z TN25/1621Z 
     TEMPO 1705/1711 25007G13MPS TSRA SCT020 FEW023CB
       
ZJSY 161600Z 00000MPS 9999 SCT020 29/27 Q1006 NOSIG
TAF ZJSY 161332Z 1618/1718 18004MPS 9999 SCT020 TX32/1706Z TN27/1621Z 
     TEMPO 1622/1704 TSRA SCT016 FEW025CB
       
ZSPD 161630Z 15003MPS 6000 NSC 23/22 Q1010 NOSIG
TAF ZSPD 161511Z 1618/1718 14004MPS 6000 BKN011 TX30/1706Z TN21/1621Z
       
ZUUU 161600Z 23001MPS 4500 -SHRA BR FEW033TCU SCT033 23/22 Q1008 NOSIG
TAF ZUUU 161418Z 1618/1718 02003MPS 6000 SCT050 TX28/1707Z TN21/1621Z 
     TEMPO 1618/1624 -SHRA FEW030CB SCT040
       
ZYHB 161600Z 21003MPS CAVOK 13/07 Q1011 NOSIG
TAF ZYHB 161508Z 1618/1718 20004MPS 6000 SCT030 TX24/1706Z TN08/1620Z
       
ZYTX 161630Z 12001MPS CAVOK 15/13 Q1010 NOSIG
TAF ZYTX 161310Z 1618/1718 07004MPS 6000 BKN040 TX26/1706Z TN13/1621Z 
     BECMG 1705/1706 19004MPS
       
ZHHH 161600Z 00000MPS 9999 -RA NSC 24/21 Q1007 NOSIG
TAF ZHHH 161442Z 1618/1718 05003MPS 4000 -RA BR NSC TX28/1707Z TN19/1621Z 
     TEMPO 1700/1704 2000 SHRA BR FEW025 FEW030CB OVC033
       
ZPPP 161600Z 19003MPS 9999 FEW020 BKN046 20/16 Q1016 NOSIG
TAF ZPPP 161313Z 1618/1718 22006MPS 9999 SCT020 BKN040 TX26/1708Z TN17/1623Z
       
ZBYN 161630Z 07006MPS 7000 NSC 20/15 Q1011 NOSIG
TAF ZBYN 161505Z 1618/1718 09004MPS 6000 NSC TX33/1707Z TN16/1621Z
       
ZGNN 161600Z 15004MPS 100V180 9999 SCT009 BKN033 28/25 Q1005 NOSIG
TAF ZGNN 161505Z 1618/1718 16004MPS 7000 SCT030 TX33/1707Z TN26/1622Z
       
ZLXY 161600Z 27001MPS CAVOK 23/17 Q1007 NOSIG
TAF ZLXY 161514Z 1618/1718 06003G08MPS 6000 NSC TX30/1707Z TN21/1621Z
       
ZSHC 161630Z 20002MPS 170V230 CAVOK 27/18 Q1009 NOSIG
TAF ZSHC 161500Z 1618/1718 14003MPS 3000 BR SCT040 TX31/1706Z TN22/1621Z
       
ZHCC 161600Z VRB01MPS CAVOK 27/16 Q1007 NOSIG
TAF ZHCC 161501Z 1618/1718 12004MPS 8000 NSC TX33/1707Z TN23/1622Z
       
TAF ZSJN 160907Z 1612/1712 24003MPS 3500 BR NSC TX34/06Z TN20/21Z
       
ZBSJ 161600Z 09002MPS 060V160 7000 -TSRA FEW026CB BKN046 18/17 Q1011 RESHRA BECMG TL1640 NSW
TAF ZBSJ 161402Z 1618/1718 06004MPS 6000 NSC TX30/1706Z TN16/1621Z 
     BECMG 1621/1622 2700 BR 
     BECMG 1702/1703 3500 BR
       
ZLLL 161600Z 32002MPS CAVOK 16/11 Q1016 NOSIG
TAF ZLLL 161505Z 1618/1718 35003MPS CAVOK TX23/1709Z TN10/1622Z 
     TEMPO 1708/1714 -SHRA FEW033CB SCT040
       
ZYTL 161630Z 27003MPS 9999 SCT033 18/15 Q1010 NOSIG
TAF ZYTL 161500Z 1618/1718 28004MPS 8000 SCT033 TX26/1706Z TN17/1621Z 
     BECMG 1702/1703 16004MPS